createdAt,value
2023-03-12T00:02:40.733Z,98588.72
2023-03-12T00:07:45.020Z,98601.72
2023-03-12T00:12:48.056Z,98600.78
2023-03-12T00:17:51.269Z,98600.09
2023-03-12T00:22:55.547Z,98600.25
2023-03-12T00:27:58.504Z,98600.75
2023-03-12T00:33:01.433Z,98604.50
2023-03-12T00:38:05.699Z,98601.94
2023-03-12T00:43:08.734Z,98598.13
2023-03-12T00:48:11.646Z,98599.34
2023-03-12T00:53:15.951Z,98597.31
2023-03-12T00:58:18.870Z,98598.91
2023-03-12T01:03:21.776Z,98596.00
2023-03-12T01:08:26.230Z,98598.69
2023-03-12T01:13:29.642Z,98604.06
2023-03-12T01:18:32.867Z,98600.75
2023-03-12T01:23:37.143Z,98615.59
2023-03-12T01:28:40.078Z,98613.31
2023-03-12T01:33:43.282Z,98605.59
2023-03-12T01:38:47.951Z,98605.31
2023-03-12T01:43:50.993Z,98617.22
2023-03-12T01:48:57.950Z,98610.44
2023-03-12T01:54:08.081Z,98614.63
2023-03-12T01:59:16.504Z,98612.88
2023-03-12T02:04:22.595Z,98610.22
2023-03-12T02:09:27.758Z,98611.59
2023-03-12T02:14:30.944Z,98613.81
2023-03-12T02:19:42.664Z,98605.00
2023-03-12T02:24:53.090Z,98611.41
2023-03-12T02:29:57.504Z,98610.81
2023-03-12T02:35:01.598Z,98608.09
2023-03-12T02:40:11.002Z,98622.84
2023-03-12T02:45:15.369Z,98621.78
2023-03-12T02:50:18.344Z,98626.66
2023-03-12T02:55:21.425Z,98631.72
2023-03-12T03:00:26.078Z,98639.06
2023-03-12T03:05:30.372Z,98636.38
2023-03-12T03:10:33.384Z,98625.78
2023-03-12T03:15:38.812Z,98630.28
2023-03-12T03:20:43.502Z,98638.19
2023-03-12T03:25:47.829Z,98657.13
2023-03-12T03:30:53.898Z,98663.59
2023-03-12T03:35:58.023Z,98661.41
2023-03-12T03:41:01.161Z,98671.69
2023-03-12T03:46:08.135Z,98682.28
2023-03-12T03:51:15.713Z,98678.03
2023-03-12T03:56:22.101Z,98686.19
2023-03-12T04:01:27.933Z,98688.75
2023-03-12T04:06:32.668Z,98682.41
2023-03-12T04:11:35.633Z,98682.31
2023-03-12T04:16:41.431Z,98681.59
2023-03-12T04:21:44.333Z,98683.63
2023-03-12T04:26:48.400Z,98678.25
2023-03-12T04:31:54.098Z,98681.47
2023-03-12T04:36:57.597Z,98676.09
2023-03-12T04:42:00.617Z,98678.38
2023-03-12T04:47:05.384Z,98683.88
2023-03-12T04:52:08.490Z,98695.09
2023-03-12T04:57:11.502Z,98698.13
2023-03-12T05:02:15.796Z,98693.00
2023-03-12T05:07:19.855Z,98701.91
2023-03-12T05:12:22.715Z,98703.28
2023-03-12T05:17:27.115Z,98697.03
2023-03-12T05:22:30.026Z,98703.19
2023-03-12T05:27:33.326Z,98702.91
2023-03-12T05:32:38.490Z,98708.34
2023-03-12T05:37:42.860Z,98711.53
2023-03-12T05:42:47.056Z,98709.91
2023-03-12T05:47:51.287Z,98705.88
2023-03-12T05:52:54.328Z,98719.09
2023-03-12T05:57:57.312Z,98715.59
2023-03-12T06:03:01.782Z,98713.63
2023-03-12T06:08:06.349Z,98705.13
2023-03-12T06:13:10.912Z,98709.94
2023-03-12T06:18:15.418Z,98715.06
2023-03-12T06:23:21.103Z,98707.97
2023-03-12T06:28:24.764Z,98717.81
2023-03-12T06:33:29.368Z,98716.13
2023-03-12T06:38:32.455Z,98720.63
2023-03-12T06:43:38.066Z,98713.91
2023-03-12T06:48:42.547Z,98716.34
2023-03-12T06:53:46.820Z,98719.56
2023-03-12T06:58:50.148Z,98721.00
2023-03-12T07:03:54.435Z,98718.53
2023-03-12T07:08:57.332Z,98713.31
2023-03-12T07:14:00.208Z,98714.53
2023-03-12T07:19:04.964Z,98705.31
2023-03-12T07:24:08.941Z,98705.66
2023-03-12T07:29:11.843Z,98709.19
2023-03-12T07:34:16.316Z,98707.63
2023-03-12T07:39:19.385Z,98709.00
2023-03-12T07:44:22.293Z,98703.09
2023-03-12T07:49:27.596Z,98700.72
2023-03-12T07:54:30.801Z,98703.00
2023-03-12T07:59:34.080Z,98701.91
2023-03-12T08:04:39.069Z,98703.34
2023-03-12T08:09:42.477Z,98712.19
2023-03-12T08:14:46.756Z,98713.78
2023-03-12T08:19:51.241Z,98715.22
2023-03-12T08:24:54.143Z,98714.19
2023-03-12T08:29:57.256Z,98720.78
2023-03-12T08:35:01.630Z,98724.63
2023-03-12T08:40:12.920Z,98725.13
2023-03-12T08:45:16.287Z,98722.03
2023-03-12T08:50:22.277Z,98712.13
2023-03-12T08:55:26.285Z,98718.81
2023-03-12T09:00:29.426Z,98717.69
2023-03-12T09:05:34.084Z,98717.00
2023-03-12T09:10:37.122Z,98713.34
2023-03-12T09:15:40.050Z,98719.47
2023-03-12T09:20:44.814Z,98714.34
2023-03-12T09:25:48.463Z,98703.13
2023-03-12T09:30:51.509Z,98695.25
2023-03-12T09:35:59.912Z,98697.78
2023-03-12T09:41:05.349Z,98693.00
2023-03-12T09:46:14.766Z,98681.56
2023-03-12T09:51:23.386Z,98687.94
2023-03-12T09:56:28.058Z,98684.88
2023-03-12T10:01:39.720Z,98679.31
2023-03-12T10:06:49.167Z,98676.72
2023-03-12T10:11:59.749Z,98662.66
2023-03-12T10:17:18.960Z,98664.28
2023-03-12T10:22:33.609Z,98650.75
2023-03-12T10:27:37.621Z,98656.06
2023-03-12T10:32:43.569Z,98644.03
2023-03-12T10:37:49.793Z,98625.84
2023-03-12T10:42:53.100Z,98636.19
2023-03-12T10:48:00.110Z,98618.34
2023-03-12T10:53:23.777Z,98619.78
2023-03-12T10:58:27.614Z,98624.47
2023-03-12T11:03:30.832Z,98617.09
2023-03-12T11:08:37.054Z,98613.44
2023-03-12T11:13:42.063Z,98606.72
2023-03-12T11:18:56.375Z,98605.84
2023-03-12T11:24:10.433Z,98597.78
2023-03-12T11:29:24.126Z,98588.75
2023-03-12T11:34:30.405Z,98586.16
2023-03-12T11:39:49.655Z,98577.47
2023-03-12T11:45:04.409Z,98567.69
2023-03-12T11:50:31.932Z,98553.22
2023-03-12T11:55:57.113Z,98555.47
2023-03-12T12:01:10.853Z,98515.31
2023-03-12T12:06:22.944Z,98513.00
2023-03-12T12:11:36.380Z,98506.53
2023-03-12T12:16:52.583Z,98504.13
2023-03-12T12:22:10.799Z,98493.72
2023-03-12T12:27:21.203Z,98493.69
2023-03-12T12:32:32.261Z,98482.81
2023-03-12T12:37:46.403Z,98473.09
2023-03-12T12:43:01.985Z,98459.09
2023-03-12T12:48:10.066Z,98446.25
2023-03-12T12:53:21.684Z,98445.97
2023-03-12T12:58:45.276Z,98441.19
2023-03-12T13:03:49.347Z,98452.03
2023-03-12T13:09:15.175Z,98438.78
2023-03-12T13:14:36.592Z,98442.00
2023-03-12T13:19:45.053Z,98431.50
2023-03-12T13:25:00.947Z,98431.59
2023-03-12T13:30:37.440Z,98438.19
2023-03-12T13:35:42.445Z,98436.41
2023-03-12T13:41:05.110Z,98431.19
2023-03-12T13:46:21.709Z,98441.41
2023-03-12T13:51:27.099Z,98428.78
2023-03-12T13:56:32.489Z,98432.56
2023-03-12T14:01:38.817Z,98458.84
2023-03-12T14:06:59.783Z,98436.94
2023-03-12T14:12:06.647Z,98448.00
2023-03-12T14:17:17.826Z,98448.72
2023-03-12T14:22:24.033Z,98443.34
2023-03-12T14:27:30.289Z,98442.75
2023-03-12T14:32:34.866Z,98433.25
2023-03-12T14:37:43.976Z,98441.66
2023-03-12T14:42:47.468Z,98430.84
2023-03-12T14:47:55.142Z,98431.13
2023-03-12T14:53:13.661Z,98414.44
2023-03-12T14:58:18.948Z,98409.00
2023-03-12T15:03:22.033Z,98399.13
2023-03-12T15:08:26.954Z,98397.53
2023-03-12T15:13:29.956Z,98389.13
2023-03-12T15:18:34.679Z,98376.66
2023-03-12T15:23:40.305Z,98375.81
2023-03-12T15:28:43.958Z,98365.97
2023-03-12T15:34:00.129Z,98358.59
2023-03-12T15:39:15.137Z,98328.91
2023-03-12T15:44:21.481Z,98328.59
2023-03-12T15:49:29.347Z,98316.06
2023-03-12T15:54:35.193Z,98325.09
2023-03-12T15:59:38.556Z,98316.53
2023-03-12T16:04:41.441Z,98309.00
2023-03-12T16:09:45.861Z,98311.78
2023-03-12T16:14:50.147Z,98298.38
2023-03-12T16:19:53.224Z,98300.13
2023-03-12T16:24:57.479Z,98315.84
2023-03-12T16:30:00.798Z,98314.50
2023-03-12T16:35:10.850Z,98299.66
2023-03-12T16:40:27.535Z,98298.59
2023-03-12T16:45:37.713Z,98300.13
2023-03-12T16:50:40.733Z,98298.03
2023-03-12T16:55:51.392Z,98307.41
2023-03-12T17:00:55.893Z,98308.06
2023-03-12T17:05:58.899Z,98302.13
2023-03-12T17:11:04.439Z,98294.78
2023-03-12T17:16:07.727Z,98299.97
2023-03-12T17:21:13.356Z,98290.41
2023-03-12T17:26:18.305Z,98304.91
2023-03-12T17:31:21.521Z,98294.34
2023-03-12T17:36:24.521Z,98322.34
2023-03-12T17:41:28.964Z,98325.19
2023-03-12T17:46:32.529Z,98307.47
2023-03-12T17:51:35.691Z,98302.47
2023-03-12T17:56:39.946Z,98315.88
2023-03-12T18:01:42.818Z,98322.28
2023-03-12T18:06:45.721Z,98304.94
2023-03-12T18:11:49.996Z,98316.53
2023-03-12T18:16:52.953Z,98312.75
2023-03-12T18:21:56.005Z,98319.78
2023-03-12T18:27:00.532Z,98323.78
2023-03-12T18:32:04.218Z,98335.22
2023-03-12T18:37:07.062Z,98329.44
2023-03-12T18:42:11.335Z,98332.44
2023-03-12T18:47:14.351Z,98330.44
2023-03-12T18:52:17.292Z,98316.25
2023-03-12T18:57:21.539Z,98322.25
2023-03-12T19:02:24.716Z,98318.22
2023-03-12T19:07:27.655Z,98323.84
2023-03-12T19:12:42.242Z,98342.66
2023-03-12T19:17:52.650Z,98346.28
2023-03-12T19:22:55.649Z,98339.03
2023-03-12T19:28:00.100Z,98350.66
2023-03-12T19:33:03.236Z,98342.22
2023-03-12T19:38:06.456Z,98339.81
2023-03-12T19:43:10.822Z,98340.00
2023-03-12T19:48:14.248Z,98337.00
2023-03-12T19:53:17.979Z,98346.00
2023-03-12T19:58:22.768Z,98346.41
2023-03-12T20:03:25.877Z,98339.19
2023-03-12T20:08:31.328Z,98356.00
2023-03-12T20:13:35.713Z,98365.66
2023-03-12T20:18:38.848Z,98353.00
2023-03-12T20:23:41.782Z,98365.41
2023-03-12T20:28:46.043Z,98370.59
2023-03-12T20:33:48.992Z,98376.81
2023-03-12T20:38:52.322Z,98360.72
2023-03-12T20:43:57.956Z,98350.53
2023-03-12T20:49:00.973Z,98348.91
2023-03-12T20:54:03.990Z,98362.72
2023-03-12T20:59:08.316Z,98355.25
2023-03-12T21:04:11.218Z,98352.88
2023-03-12T21:09:15.111Z,98361.28
2023-03-12T21:14:19.372Z,98358.66
2023-03-12T21:19:22.289Z,98362.47
2023-03-12T21:24:25.324Z,98365.63
2023-03-12T21:29:29.858Z,98354.81
2023-03-12T21:34:32.817Z,98357.59
2023-03-12T21:39:35.990Z,98347.50
2023-03-12T21:44:40.268Z,98356.34
2023-03-12T21:49:43.165Z,98340.06
2023-03-12T21:54:46.134Z,98333.38
2023-03-12T21:59:50.394Z,98330.16
2023-03-12T22:04:53.445Z,98321.75
2023-03-12T22:09:56.352Z,98318.91
2023-03-12T22:15:00.665Z,98321.75
2023-03-12T22:20:07.837Z,98320.88
2023-03-12T22:25:10.865Z,98316.28
2023-03-12T22:30:15.807Z,98310.38
2023-03-12T22:35:25.518Z,98305.72
2023-03-12T22:40:28.437Z,98298.28
2023-03-12T22:45:33.018Z,98299.28
2023-03-12T22:50:35.944Z,98303.56
2023-03-12T22:55:38.869Z,98301.00
2023-03-12T23:00:43.122Z,98298.50
2023-03-12T23:05:46.466Z,98295.47
2023-03-12T23:10:53.759Z,98296.47
2023-03-12T23:16:02.401Z,98286.78
2023-03-12T23:21:07.560Z,98279.53
2023-03-12T23:26:14.206Z,98288.38
2023-03-12T23:31:18.803Z,98278.31
2023-03-12T23:36:23.281Z,98282.72
2023-03-12T23:41:29.264Z,98270.66
2023-03-12T23:46:33.861Z,98274.47
2023-03-12T23:51:39.390Z,98278.66
2023-03-12T23:56:42.703Z,98277.44
